Flight Track Log - Related Links

Times and Time Zones

All times are in EDT time to prevent confusion due to time zone crossing. See the LOF3332 flight status page for this flight to view local times or setup timezone preferences in your user account.

Time Position Orientation Groundspeed Altitude Reporting Facility
EDT Latitude Longitude Course Direction KTS MPH feet Rate Location/Type
Tue 02:06:07 PM 40.1225 -76.8300 258° West 167 192 5,600  Level New York Center
Tue 02:07:46 PM 40.0333 -76.9333 222° Southwest 275 316 9,300 1,698 Climbing Potomac TRACON
Tue 02:08:46 PM 39.9667 -77.0000 217° Southwest 316 364 10,100 350 Climbing Potomac TRACON
Tue 02:09:46 PM 39.8833 -77.0833 218° Southwest 366 421 10,000 -50 Descending Potomac TRACON
Tue 02:10:45 PM 39.8131 -77.1503 216° Southwest 361 415 10,000 49 Level Washington Center
Tue 02:11:48 PM 39.7356 -77.2294 218° Southwest 360 414 10,100  Climbing Washington Center
Tue 02:12:46 PM 39.6500 -77.3167 218° Southwest 342 394 10,000 -559 Descending Potomac TRACON
Tue 02:13:46 PM 39.5667 -77.3500 197° South 294 338 9,000 -1,200 Descending Potomac TRACON
Tue 02:14:46 PM 39.5000 -77.3500 180° South 278 320 7,600 -950 Descending Potomac TRACON
Tue 02:15:46 PM 39.4167 -77.3667 189° South 267 307 7,100 -1,050 Descending Potomac TRACON
Tue 02:16:46 PM 39.3500 -77.3667 180° South 270 311 5,500 -1,000 Descending Potomac TRACON
Tue 02:17:46 PM 39.2667 -77.3667 180° South 265 305 5,100 -700 Descending Potomac TRACON
Tue 02:18:46 PM 39.2000 -77.3500 169° South 262 302 4,100 -500 Descending Potomac TRACON
Tue 02:19:46 PM 39.1333 -77.3500 180° South 254 292 4,100 -248 Level Potomac TRACON
Tue 02:20:47 PM 39.0500 -77.3500 180° South 261 300 3,600 -744 Descending Potomac TRACON
Tue 02:21:47 PM 38.9833 -77.3500 180° South 261 300 2,600 -750 Descending Potomac TRACON
Tue 02:22:47 PM 38.9167 -77.3500 180° South 257 296 2,100 -300 Descending Potomac TRACON
Tue 02:23:47 PM 38.8500 -77.3667 191° South 232 267 2,000 -100 Descending Potomac TRACON
Tue 02:24:47 PM 38.8667 -77.4167 293° West 195 224 1,900 -550 Descending Potomac TRACON
Tue 02:25:47 PM 38.9000 -77.4333 339° North 139 160 900 -588 Descending Potomac TRACON
Tue 02:27:20 PM 38.9569 -77.4367 357° North 153 176 400 -323 Descending Washington Center
Tue 02:29:00 PM 38.9333 -77.4500 258° West  Level FlightAware Approximate

Login

Don't have an account? Register now (free) for customized features, flight alerts, and more!